»·PEaware :: DAL4712 KGJT-KSLC

DAL4712 :: KGJT-KSLC

FLIGHT INFORMATION

Flight Status: Arrived
Operator:
Delta Air Lines
More flights by this operator :: More flights under this callsign
Pilot: Ben L. (6391)
Aircraft: AIRBUS A320
(A320)
More flights by this aircraft type
Origin: KGJT Walker
United States
Destination: KSLC Salt Lake City Intl
United States
More flights between these airports :: More routes between these airports
Route: JNC J12 HELPR LEEHY4
File this flight plan on PilotEdge
Remarks:
Altitude:
(Current/Filed)
30,000ft
Speed:
(Current/Filed)
480kts
Departed: 21-Mar-17 12:08 PM
Arrived: 21-Mar-17 12:52 PM
Distance/Time
Traveled:
188nm/0:44
Distance/Time
To Go:
Arrived

Flight Plot

Page will automatically refresh every two minutes.

Flight plan parsing failed; only flown route is shown


Map Options




Map Legend


Flown Route
Filed Route
Departure Airport
Arrival Airport
Navaid (VOR, NDB)
Fix

Horizontal Profiles

Position Reports

Time Latitude Longitude Heading Altitude Ground
Speed
21-Mar-17 12:00 39.123330 -108.528914 213 4865ft 0kts
21-Mar-17 12:01 39.123824 -108.528868 116 4865ft 0kts
21-Mar-17 12:02 39.123824 -108.528868 116 4865ft 0kts
21-Mar-17 12:03 39.123824 -108.528868 116 4865ft 0kts
21-Mar-17 12:04 39.123155 -108.525372 95 4865ft 18kts
21-Mar-17 12:05 39.119067 -108.517833 125 4865ft 31kts
21-Mar-17 12:06 39.118316 -108.516441 123 4865ft 0kts
21-Mar-17 12:07 39.118815 -108.514935 311 4865ft 10kts
21-Mar-17 12:08 39.119185 -108.515571 303 4865ft 29kts
21-Mar-17 12:09 39.141671 -108.554906 307 5657ft 191kts
21-Mar-17 12:10 39.166965 -108.618055 264 7742ft 205kts
21-Mar-17 12:11 39.148463 -108.688160 239 9719ft 216kts
21-Mar-17 12:12 39.113681 -108.760160 237 11370ft 262kts
21-Mar-17 12:13 39.102883 -108.859525 271 13018ft 315kts
21-Mar-17 12:14 39.135142 -108.973239 294 14628ft 367kts
21-Mar-17 12:15 39.183977 -109.097643 292 16141ft 406kts
21-Mar-17 12:16 39.236000 -109.227971 292 17904ft 413kts
21-Mar-17 12:17 39.288720 -109.360425 291 19937ft 421kts
21-Mar-17 12:18 39.342076 -109.495073 291 21697ft 428kts
21-Mar-17 12:19 39.396343 -109.632637 291 23452ft 436kts
21-Mar-17 12:20 39.450830 -109.770366 290 25309ft 443kts
21-Mar-17 12:21 39.505493 -109.909979 289 27678ft 433kts
21-Mar-17 12:22 39.559089 -110.047791 289 29623ft 426kts
21-Mar-17 12:23 39.611608 -110.183404 289 30129ft 422kts
21-Mar-17 12:24 39.664083 -110.319040 289 30130ft 422kts
21-Mar-17 12:25 39.716768 -110.454604 289 30121ft 422kts
21-Mar-17 12:26 39.769765 -110.592476 289 28239ft 440kts
21-Mar-17 12:27 39.822286 -110.730054 289 26508ft 437kts
21-Mar-17 12:28 39.875795 -110.871128 289 24791ft 440kts
21-Mar-17 12:29 39.928410 -111.009600 289 24133ft 437kts
21-Mar-17 12:30 39.981951 -111.151080 289 24131ft 437kts
21-Mar-17 12:31 40.035328 -111.293268 289 24055ft 437kts
21-Mar-17 12:32 40.088120 -111.434997 289 24049ft 436kts
21-Mar-17 12:33 40.139657 -111.573561 289 23678ft 432kts
21-Mar-17 12:34 40.191636 -111.697853 306 21034ft 371kts
21-Mar-17 12:35 40.255861 -111.785122 306 18688ft 334kts
21-Mar-17 12:36 40.314368 -111.865097 306 16822ft 320kts
21-Mar-17 12:37 40.375580 -111.949505 306 14899ft 319kts
21-Mar-17 12:38 40.435872 -112.032591 306 13406ft 312kts
21-Mar-17 12:39 40.506597 -112.088644 3 12071ft 311kts
21-Mar-17 12:40 40.591879 -112.087124 1 12030ft 311kts
21-Mar-17 12:41 40.677890 -112.085140 1 11436ft 305kts
21-Mar-17 12:42 40.761071 -112.082276 1 10455ft 298kts
21-Mar-17 12:43 40.843089 -112.079462 1 9466ft 296kts
21-Mar-17 12:44 40.922612 -112.076690 1 8507ft 277kts
21-Mar-17 12:45 40.996989 -112.074105 1 7928ft 256kts
21-Mar-17 12:46 41.042377 -112.032201 90 7225ft 212kts
21-Mar-17 12:47 41.002674 -112.002400 175 6968ft 174kts
21-Mar-17 12:48 40.958459 -111.995853 176 6883ft 158kts
21-Mar-17 12:49 40.915307 -111.990103 172 6429ft 155kts
21-Mar-17 12:50 40.876548 -111.984307 176 5642ft 132kts
21-Mar-17 12:51 40.840884 -111.980543 177 4877ft 127kts
21-Mar-17 12:52 40.805593 -111.976645 174 4260ft 130kts
21-Mar-17 12:53 40.790507 -111.976263 203 4235ft 15kts
21-Mar-17 12:54 40.789965 -111.980040 262 4235ft 15kts
21-Mar-17 12:55 40.788741 -111.981748 105 4235ft 0kts

Navigation Log

Ident Type
Flight plan parsing failed, navigation log unavailable